Time;durP1;ratioP1;P1;durP2;ratioP2;P2;SDS_P1;SDS_P2;PMS_P1;PMS_P2;Temp;Humidity;BMP_temperature;BMP_pressure;BME280_temperature;BME280_humidity;BME280_pressure;Samples;Min_cycle;Max_cycle;Signal;HPM_P1;HPM_P2
2021/06/23 00:02:14;;;;;;;80.07;45.05;;;;;;;;;;5070637;28;20017;-71
2021/06/23 00:04:39;;;;;;;74.90;42.30;;;;;;;;;;5069771;28;20044;-74
2021/06/23 00:07:05;;;;;;;78.85;43.20;;;;;;;;;;5070961;28;20768;-74
2021/06/23 00:09:30;;;;;;;78.23;42.97;;;;;;;;;;5071029;28;20025;-70
2021/06/23 00:11:57;;;;;;;75.07;43.15;;;;;;;;;;5070562;28;20615;-76
2021/06/23 00:14:23;;;;;;;79.43;43.40;;;;;;;;;;5070321;28;20023;-73
2021/06/23 00:16:48;;;;;;;79.45;42.75;;;;;;;;;;5070356;28;20013;-71
2021/06/23 00:19:14;;;;;;;73.28;42.50;;;;;;;;;;5070566;28;20024;-75
2021/06/23 00:21:39;;;;;;;68.87;39.90;;;;;;;;;;5070191;28;20059;-70
2021/06/23 00:24:04;;;;;;;69.28;40.95;;;;;;;;;;5070381;28;20271;-75
2021/06/23 00:26:33;;;;;;;73.22;42.50;;;;;;;;;;5070488;28;20135;-75
2021/06/23 00:28:58;;;;;;;66.13;38.58;;;;;;;;;;5070072;28;20184;-71
2021/06/23 00:31:23;;;;;;;69.22;40.15;;;;;;;;;;5070320;28;20012;-71
2021/06/23 00:33:50;;;;;;;69.35;41.17;;;;;;;;;;5069814;28;20012;-70
2021/06/23 00:36:15;;;;;;;71.90;40.33;;;;;;;;;;5070475;28;20020;-73
2021/06/23 00:38:40;;;;;;;75.57;39.38;;;;;;;;;;5070006;28;20474;-71
2021/06/23 00:41:05;;;;;;;69.33;40.27;;;;;;;;;;5070123;28;20021;-73
2021/06/23 00:43:31;;;;;;;65.15;40.78;;;;;;;;;;5069353;28;20802;-71
2021/06/23 00:45:56;;;;;;;65.82;39.42;;;;;;;;;;5069662;28;20039;-72
2021/06/23 00:48:27;;;;;;;76.18;39.80;;;;;;;;;;5069792;28;20078;-70
2021/06/23 00:50:53;;;;;;;65.78;39.42;;;;;;;;;;5070366;28;20033;-74
2021/06/23 00:53:18;;;;;;;69.13;38.15;;;;;;;;;;5070196;28;20405;-72
2021/06/23 00:55:43;;;;;;;80.18;39.75;;;;;;;;;;5069433;28;20074;-70
2021/06/23 00:58:09;;;;;;;66.70;38.83;;;;;;;;;;5065666;28;20389;-70
2021/06/23 01:00:35;;;;;;;71.65;39.33;;;;;;;;;;5062721;28;20025;-70
2021/06/23 01:03:02;;;;;;;66.53;39.38;;;;;;;;;;5078824;28;20022;-71
2021/06/23 01:05:27;;;;;;;71.97;38.42;;;;;;;;;;5069471;28;20371;-70
2021/06/23 01:07:54;;;;;;;73.15;39.33;;;;;;;;;;5074301;28;20035;-71
2021/06/23 01:10:19;;;;;;;61.20;38.42;;;;;;;;;;5077310;28;20074;-70
2021/06/23 01:12:54;;;;;;;70.78;39.40;;;;;;;;;;5070070;28;20021;-74
2021/06/23 01:15:19;;;;;;;78.22;41.15;;;;;;;;;;5082003;28;20024;-74
2021/06/23 01:17:45;;;;;;;68.65;40.45;;;;;;;;;;5087068;28;20021;-74
2021/06/23 01:20:11;;;;;;;76.68;40.08;;;;;;;;;;5078500;28;20028;-73
2021/06/23 01:22:38;;;;;;;70.68;40.08;;;;;;;;;;5069523;28;20036;-70
2021/06/23 01:25:04;;;;;;;76.85;40.83;;;;;;;;;;5069613;28;20027;-73
2021/06/23 01:27:29;;;;;;;68.22;39.55;;;;;;;;;;5069773;28;20024;-73
2021/06/23 01:29:54;;;;;;;67.47;38.95;;;;;;;;;;5069156;28;20016;-71
2021/06/23 01:32:19;;;;;;;71.87;39.00;;;;;;;;;;5068640;28;20044;-70
2021/06/23 01:34:45;;;;;;;68.45;39.25;;;;;;;;;;5069003;28;20270;-70
2021/06/23 01:37:10;;;;;;;76.27;41.03;;;;;;;;;;5069891;28;20091;-74
2021/06/23 01:39:35;;;;;;;73.80;40.83;;;;;;;;;;5069816;28;20701;-70
2021/06/23 01:42:01;;;;;;;66.00;39.33;;;;;;;;;;5070268;28;20289;-73
2021/06/23 01:44:29;;;;;;;64.85;38.17;;;;;;;;;;5069091;28;20496;-70
2021/06/23 01:46:57;;;;;;;69.55;38.95;;;;;;;;;;5069417;28;20021;-70
2021/06/23 01:49:23;;;;;;;67.07;37.97;;;;;;;;;;5069145;28;20092;-70
2021/06/23 01:51:48;;;;;;;65.43;38.17;;;;;;;;;;5069691;28;20051;-70
2021/06/23 01:54:14;;;;;;;69.28;37.83;;;;;;;;;;5069369;28;20052;-72
2021/06/23 01:56:39;;;;;;;68.15;36.60;;;;;;;;;;5073409;28;20024;-71
2021/06/23 01:59:04;;;;;;;68.37;36.53;;;;;;;;;;5074627;28;20474;-72
2021/06/23 02:01:35;;;;;;;68.82;37.03;;;;;;;;;;5072320;28;20282;-72
2021/06/23 02:04:11;;;;;;;59.00;35.17;;;;;;;;;;5072881;28;20088;-71
2021/06/23 02:06:48;;;;;;;56.97;34.15;;;;;;;;;;5072633;28;20052;-70
2021/06/23 02:09:16;;;;;;;56.58;33.83;;;;;;;;;;5072760;28;20058;-70
2021/06/23 02:11:45;;;;;;;57.95;32.53;;;;;;;;;;5073548;28;20020;-70
2021/06/23 02:14:14;;;;;;;50.47;30.52;;;;;;;;;;5072418;28;20417;-70
2021/06/23 02:16:41;;;;;;;59.40;32.88;;;;;;;;;;5072847;28;20017;-70
2021/06/23 02:19:06;;;;;;;58.28;30.33;;;;;;;;;;5072829;28;20476;-70
2021/06/23 02:21:34;;;;;;;56.90;30.70;;;;;;;;;;5072889;28;20025;-70
2021/06/23 02:24:00;;;;;;;42.28;27.58;;;;;;;;;;5072569;28;20082;-74
2021/06/23 02:26:25;;;;;;;50.13;29.17;;;;;;;;;;5082831;28;20023;-70
2021/06/23 02:28:51;;;;;;;47.40;26.35;;;;;;;;;;5075563;28;20021;-72
2021/06/23 02:31:16;;;;;;;55.72;26.23;;;;;;;;;;5072598;28;20021;-74
2021/06/23 02:33:41;;;;;;;49.40;28.42;;;;;;;;;;5071314;28;20016;-70
2021/06/23 02:36:07;;;;;;;46.17;27.50;;;;;;;;;;5071876;28;20017;-70
2021/06/23 02:38:32;;;;;;;50.65;27.48;;;;;;;;;;5072227;28;20027;-72
2021/06/23 02:40:57;;;;;;;49.33;28.25;;;;;;;;;;5073266;28;20089;-72
2021/06/23 02:43:23;;;;;;;49.90;25.95;;;;;;;;;;5078194;28;20366;-71
2021/06/23 02:45:49;;;;;;;41.50;25.40;;;;;;;;;;5072354;28;20492;-71
2021/06/23 02:48:14;;;;;;;43.30;24.73;;;;;;;;;;5071897;28;20024;-73
2021/06/23 02:50:45;;;;;;;46.70;23.50;;;;;;;;;;5071886;28;20318;-70
2021/06/23 02:53:10;;;;;;;48.65;23.92;;;;;;;;;;5072455;28;20074;-70
2021/06/23 02:55:36;;;;;;;42.28;23.88;;;;;;;;;;5072036;28;20024;-71
2021/06/23 02:58:01;;;;;;;49.75;25.30;;;;;;;;;;5080711;28;20020;-71
2021/06/23 03:00:26;;;;;;;39.95;24.50;;;;;;;;;;5074230;28;20020;-70
2021/06/23 03:02:52;;;;;;;42.77;23.30;;;;;;;;;;5071835;28;20020;-70
2021/06/23 03:05:17;;;;;;;39.03;23.75;;;;;;;;;;5071257;28;20265;-70
2021/06/23 03:07:43;;;;;;;41.73;24.23;;;;;;;;;;5071157;28;20341;-70
2021/06/23 03:10:09;;;;;;;45.90;24.77;;;;;;;;;;5071452;28;20297;-72
2021/06/23 03:12:35;;;;;;;40.95;23.52;;;;;;;;;;5077218;28;20021;-70
2021/06/23 03:15:00;;;;;;;42.67;23.95;;;;;;;;;;5079112;28;20024;-74
2021/06/23 03:17:25;;;;;;;41.72;23.17;;;;;;;;;;5071692;28;20017;-70
2021/06/23 03:19:50;;;;;;;31.42;22.50;;;;;;;;;;5070451;28;20114;-73
2021/06/23 03:22:16;;;;;;;43.97;22.30;;;;;;;;;;5071412;28;20133;-73
2021/06/23 03:24:41;;;;;;;41.28;22.77;;;;;;;;;;5070971;28;20266;-74
2021/06/23 03:27:07;;;;;;;34.08;22.60;;;;;;;;;;5071029;28;20032;-72
2021/06/23 03:29:34;;;;;;;42.97;23.52;;;;;;;;;;5086628;28;20098;-73
2021/06/23 03:32:00;;;;;;;43.45;21.63;;;;;;;;;;5071192;28;20021;-70
2021/06/23 03:34:25;;;;;;;46.33;23.23;;;;;;;;;;5070982;28;20208;-70
2021/06/23 03:36:51;;;;;;;40.22;22.73;;;;;;;;;;5070538;28;20052;-71
2021/06/23 03:39:16;;;;;;;40.17;23.45;;;;;;;;;;5077196;28;20069;-74
2021/06/23 03:41:42;;;;;;;45.35;22.73;;;;;;;;;;5090447;28;20668;-70
2021/06/23 03:44:07;;;;;;;41.35;22.40;;;;;;;;;;5071494;28;20020;-72
2021/06/23 03:46:32;;;;;;;36.53;21.65;;;;;;;;;;5069103;28;20020;-70
2021/06/23 03:48:57;;;;;;;36.55;22.65;;;;;;;;;;5071272;28;20017;-71
2021/06/23 03:51:23;;;;;;;35.10;21.35;;;;;;;;;;5070594;28;20392;-73
2021/06/23 03:53:48;;;;;;;39.33;24.25;;;;;;;;;;5078592;28;20043;-70
2021/06/23 03:56:13;;;;;;;41.83;23.20;;;;;;;;;;5079121;28;20059;-74
2021/06/23 03:58:41;;;;;;;35.33;22.48;;;;;;;;;;5070684;28;20327;-70
2021/06/23 04:01:06;;;;;;;44.83;23.52;;;;;;;;;;5070281;28;20020;-70
2021/06/23 04:03:32;;;;;;;42.63;24.48;;;;;;;;;;5070921;28;20104;-70
2021/06/23 04:05:57;;;;;;;46.87;23.67;;;;;;;;;;5070096;28;20021;-70
2021/06/23 04:08:22;;;;;;;41.37;23.10;;;;;;;;;;5069944;28;20283;-70
2021/06/23 04:10:47;;;;;;;38.47;23.13;;;;;;;;;;5070331;28;20270;-73
2021/06/23 04:13:12;;;;;;;40.22;23.90;;;;;;;;;;5070621;28;20350;-70
2021/06/23 04:15:37;;;;;;;42.90;24.17;;;;;;;;;;5070556;28;20025;-72
2021/06/23 04:18:03;;;;;;;44.53;25.15;;;;;;;;;;5070168;28;20277;-70
2021/06/23 04:20:28;;;;;;;42.00;24.20;;;;;;;;;;5069863;28;20033;-72
2021/06/23 04:22:53;;;;;;;44.03;23.47;;;;;;;;;;5070690;28;20271;-70
2021/06/23 04:25:18;;;;;;;41.10;22.77;;;;;;;;;;5069964;28;20292;-71
2021/06/23 04:27:44;;;;;;;50.08;25.20;;;;;;;;;;5069580;28;20278;-70
2021/06/23 04:30:10;;;;;;;49.45;23.55;;;;;;;;;;5071037;28;20029;-70
2021/06/23 04:32:35;;;;;;;34.92;22.80;;;;;;;;;;5070145;28;20021;-70
2021/06/23 04:35:03;;;;;;;40.93;23.83;;;;;;;;;;5069653;28;20035;-72
2021/06/23 04:37:28;;;;;;;45.28;23.30;;;;;;;;;;5069889;28;20266;-72
2021/06/23 04:39:54;;;;;;;45.17;24.17;;;;;;;;;;5070224;28;20103;-70
2021/06/23 04:42:19;;;;;;;40.75;24.63;;;;;;;;;;5072403;28;20028;-70
2021/06/23 04:44:44;;;;;;;44.72;24.92;;;;;;;;;;5070098;28;20024;-70
2021/06/23 04:47:10;;;;;;;42.27;23.53;;;;;;;;;;5069634;28;20111;-70
2021/06/23 04:49:35;;;;;;;41.15;25.38;;;;;;;;;;5069774;28;20262;-71
2021/06/23 04:52:00;;;;;;;49.17;24.77;;;;;;;;;;5066361;28;20020;-70
2021/06/23 04:54:25;;;;;;;44.65;25.20;;;;;;;;;;5066976;28;20270;-70
2021/06/23 04:56:50;;;;;;;48.38;23.65;;;;;;;;;;5078577;28;20012;-75
2021/06/23 04:59:16;;;;;;;44.42;25.33;;;;;;;;;;5066799;28;20163;-71
2021/06/23 05:01:41;;;;;;;46.65;23.88;;;;;;;;;;5066769;28;20023;-71
2021/06/23 05:04:06;;;;;;;48.65;24.13;;;;;;;;;;5067131;28;20111;-70
2021/06/23 05:06:31;;;;;;;39.03;25.33;;;;;;;;;;5067526;28;20024;-74
2021/06/23 05:08:56;;;;;;;39.75;23.83;;;;;;;;;;5073758;28;20419;-70
2021/06/23 05:11:22;;;;;;;39.40;24.60;;;;;;;;;;5068481;28;20130;-72
2021/06/23 05:13:47;;;;;;;39.28;24.33;;;;;;;;;;5069816;28;20623;-70
2021/06/23 05:16:12;;;;;;;49.42;25.45;;;;;;;;;;5069260;28;20027;-71
2021/06/23 05:18:37;;;;;;;41.80;25.25;;;;;;;;;;5071153;28;20055;-72
2021/06/23 05:21:04;;;;;;;37.65;24.08;;;;;;;;;;5078130;28;20473;-72
2021/06/23 05:23:29;;;;;;;41.08;25.75;;;;;;;;;;5109434;22;20053;-66
2021/06/23 05:25:54;;;;;;;35.45;23.92;;;;;;;;;;5065464;28;20464;-66
2021/06/23 05:28:19;;;;;;;48.13;24.55;;;;;;;;;;5064016;28;20036;-65
2021/06/23 05:30:45;;;;;;;39.63;23.70;;;;;;;;;;5048284;28;20028;-65
2021/06/23 05:33:10;;;;;;;42.90;24.85;;;;;;;;;;5055034;28;20283;-65
2021/06/23 05:35:35;;;;;;;43.92;24.92;;;;;;;;;;5050219;28;20036;-66
2021/06/23 05:38:00;;;;;;;40.95;23.48;;;;;;;;;;5057314;28;20048;-65
2021/06/23 05:40:26;;;;;;;46.38;26.95;;;;;;;;;;5052029;28;20066;-66
2021/06/23 05:42:51;;;;;;;43.40;24.80;;;;;;;;;;5048549;28;20082;-65
2021/06/23 05:45:16;;;;;;;45.13;24.60;;;;;;;;;;5038473;28;20028;-66
2021/06/23 05:47:41;;;;;;;41.92;24.23;;;;;;;;;;5039552;28;20036;-66
2021/06/23 05:50:07;;;;;;;44.90;25.10;;;;;;;;;;5052187;28;20120;-66
2021/06/23 05:52:32;;;;;;;42.30;24.05;;;;;;;;;;5052537;28;20313;-66
2021/06/23 05:54:57;;;;;;;45.67;25.02;;;;;;;;;;5051768;28;20039;-66
2021/06/23 05:57:22;;;;;;;42.57;24.73;;;;;;;;;;5051802;28;20055;-66
2021/06/23 05:59:48;;;;;;;55.67;26.08;;;;;;;;;;5053074;28;20653;-66
2021/06/23 06:02:13;;;;;;;45.73;24.07;;;;;;;;;;5052614;28;20477;-66
2021/06/23 06:04:38;;;;;;;41.30;23.17;;;;;;;;;;5052897;28;20267;-66
2021/06/23 06:07:03;;;;;;;39.50;22.63;;;;;;;;;;5052310;28;20541;-65
2021/06/23 06:09:29;;;;;;;43.40;22.23;;;;;;;;;;5030081;28;20024;-66
2021/06/23 06:11:54;;;;;;;36.00;23.15;;;;;;;;;;5052882;28;20026;-65
2021/06/23 06:14:19;;;;;;;54.03;25.20;;;;;;;;;;5052308;28;20473;-66
2021/06/23 06:16:44;;;;;;;43.20;22.73;;;;;;;;;;5051987;28;20027;-65
2021/06/23 06:19:09;;;;;;;43.55;23.55;;;;;;;;;;5052685;28;20267;-66
2021/06/23 06:21:35;;;;;;;40.67;23.13;;;;;;;;;;5050616;28;20070;-66
2021/06/23 06:24:00;;;;;;;42.70;22.50;;;;;;;;;;5049531;28;20303;-66
2021/06/23 06:26:25;;;;;;;47.13;22.10;;;;;;;;;;5052457;28;20268;-66
2021/06/23 06:28:50;;;;;;;36.97;22.90;;;;;;;;;;5051799;28;20380;-66
2021/06/23 06:31:16;;;;;;;45.87;21.07;;;;;;;;;;5052029;28;20066;-66
2021/06/23 06:33:41;;;;;;;42.43;21.10;;;;;;;;;;5051746;28;20283;-66
2021/06/23 06:36:06;;;;;;;40.83;21.77;;;;;;;;;;5051828;28;20755;-66
2021/06/23 06:38:32;;;;;;;36.25;21.83;;;;;;;;;;5051432;28;20048;-65
2021/06/23 06:40:57;;;;;;;39.00;20.52;;;;;;;;;;5052180;28;20114;-66
2021/06/23 06:43:22;;;;;;;46.38;22.67;;;;;;;;;;5052033;28;20063;-65
2021/06/23 06:45:50;;;;;;;35.72;21.38;;;;;;;;;;5050380;28;20112;-66
2021/06/23 06:48:15;;;;;;;41.95;22.00;;;;;;;;;;5052192;28;20534;-65
2021/06/23 06:50:40;;;;;;;43.35;22.45;;;;;;;;;;5047529;28;20021;-66
2021/06/23 06:53:06;;;;;;;37.27;21.30;;;;;;;;;;5051668;28;20021;-66
2021/06/23 06:55:31;;;;;;;42.75;23.13;;;;;;;;;;5049706;28;20369;-66
2021/06/23 06:57:56;;;;;;;39.03;21.85;;;;;;;;;;5052030;28;20017;-66
2021/06/23 07:00:22;;;;;;;44.53;22.57;;;;;;;;;;5051609;28;20118;-66
2021/06/23 07:02:47;;;;;;;36.42;21.00;;;;;;;;;;5052137;28;20271;-66
2021/06/23 07:05:12;;;;;;;43.25;20.23;;;;;;;;;;5051124;28;20024;-66
2021/06/23 07:07:38;;;;;;;38.25;20.63;;;;;;;;;;5051921;28;20032;-66
2021/06/23 07:10:04;;;;;;;43.33;21.88;;;;;;;;;;5051369;28;20009;-66
2021/06/23 07:12:29;;;;;;;36.45;21.08;;;;;;;;;;5040600;28;20032;-66
2021/06/23 07:14:54;;;;;;;45.15;21.00;;;;;;;;;;5046444;28;20431;-66
2021/06/23 07:17:19;;;;;;;32.17;19.10;;;;;;;;;;5051270;28;20032;-66
2021/06/23 07:19:45;;;;;;;33.13;19.85;;;;;;;;;;5051290;28;20290;-65
2021/06/23 07:22:10;;;;;;;34.50;20.25;;;;;;;;;;5051454;28;20104;-66
2021/06/23 07:24:35;;;;;;;35.50;19.73;;;;;;;;;;5051096;28;20065;-65
2021/06/23 07:27:00;;;;;;;38.00;20.97;;;;;;;;;;5050146;28;20025;-66
2021/06/23 07:29:26;;;;;;;42.40;20.40;;;;;;;;;;5048947;28;20331;-66
2021/06/23 07:36:59;;;;;;;35.28;22.50;;;;;;;;;;5036353;28;20028;-65
2021/06/23 07:39:25;;;;;;;49.28;20.75;;;;;;;;;;5051745;28;20009;-66
2021/06/23 07:41:51;;;;;;;38.97;22.13;;;;;;;;;;5051435;28;20078;-66
2021/06/23 07:44:19;;;;;;;43.22;20.42;;;;;;;;;;5047452;28;20105;-65
2021/06/23 07:46:50;;;;;;;40.15;20.83;;;;;;;;;;5046658;28;20028;-65
2021/06/23 07:49:16;;;;;;;36.25;21.00;;;;;;;;;;5051526;28;20049;-65
2021/06/23 07:51:54;;;;;;;41.60;21.00;;;;;;;;;;5050415;28;20641;-65
2021/06/23 07:54:25;;;;;;;38.58;20.55;;;;;;;;;;5050529;28;20013;-66
2021/06/23 08:01:12;;;;;;;31.75;19.92;;;;;;;;;;5050794;28;20045;-66
2021/06/23 08:10:37;;;;;;;31.92;20.05;;;;;;;;;;5050537;28;20094;-65
2021/06/23 08:13:03;;;;;;;38.72;20.15;;;;;;;;;;5050186;28;20021;-65
2021/06/23 08:15:29;;;;;;;36.50;21.20;;;;;;;;;;5050188;28;20033;-66
2021/06/23 08:17:54;;;;;;;36.03;20.30;;;;;;;;;;5049480;28;20048;-65
2021/06/23 08:20:20;;;;;;;34.13;20.00;;;;;;;;;;5050850;28;20036;-65
2021/06/23 08:22:45;;;;;;;45.40;20.67;;;;;;;;;;5050443;28;20115;-66
2021/06/23 08:25:11;;;;;;;36.78;20.85;;;;;;;;;;5050525;28;20465;-66
2021/06/23 08:27:36;;;;;;;44.15;20.98;;;;;;;;;;5048619;28;20067;-67
2021/06/23 08:30:02;;;;;;;32.90;20.07;;;;;;;;;;5029779;28;20021;-66
2021/06/23 08:32:27;;;;;;;40.42;21.05;;;;;;;;;;5049705;28;20783;-66
2021/06/23 08:34:52;;;;;;;37.65;21.05;;;;;;;;;;5033474;28;20026;-66
2021/06/23 08:37:17;;;;;;;31.08;19.75;;;;;;;;;;5038284;28;20033;-65
2021/06/23 08:39:43;;;;;;;37.13;20.87;;;;;;;;;;5040973;28;20028;-65
2021/06/23 08:42:08;;;;;;;36.20;19.05;;;;;;;;;;5049017;28;20577;-66
2021/06/23 08:44:34;;;;;;;42.65;20.83;;;;;;;;;;5049915;28;20051;-65
2021/06/23 08:47:00;;;;;;;39.08;20.13;;;;;;;;;;5049677;28;20055;-65
2021/06/23 08:49:25;;;;;;;36.35;19.63;;;;;;;;;;5050104;28;20028;-66
2021/06/23 08:51:53;;;;;;;37.25;20.35;;;;;;;;;;5050071;28;20013;-66
2021/06/23 08:54:18;;;;;;;32.47;19.30;;;;;;;;;;5050017;28;20602;-66
2021/06/23 08:56:43;;;;;;;35.38;19.73;;;;;;;;;;5044424;28;20021;-66
2021/06/23 08:59:09;;;;;;;43.03;20.00;;;;;;;;;;5049976;28;20033;-66
2021/06/23 09:01:34;;;;;;;39.65;19.95;;;;;;;;;;5049728;28;20354;-66
2021/06/23 09:04:07;;;;;;;34.83;19.92;;;;;;;;;;5050090;28;20025;-66
2021/06/23 09:06:44;;;;;;;33.78;19.67;;;;;;;;;;5051816;28;20021;-66
2021/06/23 09:09:34;;;;;;;36.33;20.13;;;;;;;;;;5053743;28;20025;-66
2021/06/23 09:12:00;;;;;;;34.15;19.70;;;;;;;;;;5052294;28;20068;-66
2021/06/23 09:14:30;;;;;;;36.13;19.80;;;;;;;;;;5052235;28;20036;-66
2021/06/23 09:17:07;;;;;;;31.58;19.55;;;;;;;;;;5046273;28;20104;-66
2021/06/23 09:19:36;;;;;;;31.90;19.05;;;;;;;;;;5046072;28;20022;-66
2021/06/23 09:22:03;;;;;;;37.63;19.70;;;;;;;;;;5052389;28;20078;-66
2021/06/23 09:24:34;;;;;;;30.08;19.33;;;;;;;;;;5053170;28;20036;-66
2021/06/23 09:27:00;;;;;;;30.83;18.60;;;;;;;;;;5053595;28;20013;-66
2021/06/23 09:29:25;;;;;;;40.72;18.58;;;;;;;;;;5053773;28;20500;-66
2021/06/23 09:32:01;;;;;;;39.53;18.90;;;;;;;;;;5053227;28;20032;-66
2021/06/23 09:34:26;;;;;;;35.92;19.15;;;;;;;;;;5035334;28;20259;-66
2021/06/23 09:36:52;;;;;;;28.15;17.55;;;;;;;;;;5051861;28;20021;-66
2021/06/23 09:39:19;;;;;;;29.80;17.75;;;;;;;;;;5052701;28;20025;-66
2021/06/23 09:41:44;;;;;;;38.22;19.58;;;;;;;;;;5052569;28;20029;-66
2021/06/23 09:44:10;;;;;;;28.05;17.50;;;;;;;;;;5053411;28;20028;-66
2021/06/23 09:46:36;;;;;;;31.08;19.42;;;;;;;;;;5052577;28;20025;-66
2021/06/23 09:49:04;;;;;;;32.50;18.25;;;;;;;;;;5049037;28;20033;-66
2021/06/23 09:51:36;;;;;;;27.50;16.88;;;;;;;;;;5047898;28;20028;-66
2021/06/23 09:54:02;;;;;;;28.40;18.15;;;;;;;;;;5053156;28;20425;-66
2021/06/23 09:56:30;;;;;;;31.60;18.80;;;;;;;;;;5052778;28;20036;-66
2021/06/23 09:58:56;;;;;;;35.17;18.33;;;;;;;;;;5053254;28;20090;-66
2021/06/23 10:01:22;;;;;;;32.47;19.40;;;;;;;;;;5053384;28;20024;-66
2021/06/23 10:03:51;;;;;;;32.00;18.35;;;;;;;;;;5051301;28;20039;-66
2021/06/23 10:06:24;;;;;;;30.73;18.85;;;;;;;;;;5052823;28;20099;-66
2021/06/23 10:08:49;;;;;;;31.52;17.77;;;;;;;;;;5052852;28;20025;-66
2021/06/23 10:11:28;;;;;;;31.98;17.80;;;;;;;;;;5052789;28;20013;-66
2021/06/23 10:13:53;;;;;;;29.20;17.98;;;;;;;;;;5052980;28;20100;-66
2021/06/23 10:16:19;;;;;;;29.17;17.87;;;;;;;;;;5042360;28;20096;-66
2021/06/23 10:18:44;;;;;;;29.23;17.70;;;;;;;;;;5044257;28;20260;-66
2021/06/23 10:21:10;;;;;;;34.53;17.17;;;;;;;;;;5039151;28;20075;-66
2021/06/23 10:23:35;;;;;;;35.63;18.33;;;;;;;;;;5052254;28;20108;-66
2021/06/23 10:26:01;;;;;;;40.47;19.00;;;;;;;;;;5050304;28;20033;-66
2021/06/23 10:28:26;;;;;;;31.02;18.67;;;;;;;;;;5052730;28;20032;-66
2021/06/23 10:30:51;;;;;;;31.02;18.77;;;;;;;;;;5039722;28;20024;-66
2021/06/23 10:33:17;;;;;;;33.60;18.20;;;;;;;;;;5052369;28;20028;-66
2021/06/23 10:35:42;;;;;;;27.05;16.90;;;;;;;;;;5049727;28;20078;-66
2021/06/23 10:38:09;;;;;;;34.97;18.33;;;;;;;;;;5048208;28;20021;-66
2021/06/23 10:40:35;;;;;;;33.50;17.90;;;;;;;;;;5048670;28;20503;-66
2021/06/23 10:43:10;;;;;;;27.83;17.10;;;;;;;;;;5052287;28;20104;-66
2021/06/23 10:45:45;;;;;;;31.67;18.73;;;;;;;;;;5051438;28;20135;-66
2021/06/23 10:48:11;;;;;;;38.17;18.50;;;;;;;;;;5049177;28;20032;-66
2021/06/23 10:50:36;;;;;;;35.05;18.27;;;;;;;;;;5052327;28;20021;-66
2021/06/23 10:53:02;;;;;;;28.65;17.60;;;;;;;;;;5050671;28;20073;-66
2021/06/23 10:55:29;;;;;;;39.75;19.27;;;;;;;;;;5039081;28;20061;-66
2021/06/23 10:57:57;;;;;;;42.22;21.38;;;;;;;;;;5051494;28;20021;-66
2021/06/23 11:00:27;;;;;;;31.27;19.85;;;;;;;;;;5051756;28;20389;-66
2021/06/23 11:02:59;;;;;;;33.38;20.27;;;;;;;;;;5052066;28;20024;-66
2021/06/23 11:05:32;;;;;;;33.50;20.50;;;;;;;;;;5051169;28;20029;-66
2021/06/23 11:07:58;;;;;;;37.97;19.52;;;;;;;;;;5052089;28;20021;-66
2021/06/23 11:10:27;;;;;;;32.00;20.05;;;;;;;;;;5047392;28;20041;-66
2021/06/23 11:12:57;;;;;;;38.97;22.73;;;;;;;;;;5051795;28;20354;-66
2021/06/23 11:15:28;;;;;;;31.45;18.08;;;;;;;;;;5047841;28;20693;-66
2021/06/23 11:17:54;;;;;;;38.22;20.30;;;;;;;;;;5046970;28;20028;-66
2021/06/23 11:20:19;;;;;;;35.33;19.17;;;;;;;;;;5042566;28;20028;-66
2021/06/23 11:22:45;;;;;;;38.17;20.23;;;;;;;;;;5064107;22;20020;-65
2021/06/23 11:25:23;;;;;;;35.55;19.35;;;;;;;;;;5069140;28;20514;-67
2021/06/23 11:28:07;;;;;;;28.60;18.58;;;;;;;;;;5056925;28;20031;-66
2021/06/23 11:30:32;;;;;;;29.52;19.02;;;;;;;;;;5055546;28;20021;-67
2021/06/23 11:32:57;;;;;;;32.73;18.47;;;;;;;;;;5069178;28;20021;-67
2021/06/23 11:35:22;;;;;;;31.03;19.77;;;;;;;;;;5071176;28;20266;-67
2021/06/23 11:37:47;;;;;;;25.57;17.33;;;;;;;;;;5063940;28;20347;-66
2021/06/23 11:40:14;;;;;;;26.60;18.63;;;;;;;;;;5058048;28;20260;-65
2021/06/23 11:42:39;;;;;;;37.40;18.10;;;;;;;;;;5051714;28;20278;-67
2021/06/23 11:45:05;;;;;;;28.92;17.25;;;;;;;;;;5049488;28;20017;-67
2021/06/23 11:47:30;;;;;;;28.90;17.17;;;;;;;;;;5050259;28;20082;-66
2021/06/23 11:49:56;;;;;;;30.10;18.42;;;;;;;;;;5054248;28;20017;-66
2021/06/23 11:52:21;;;;;;;29.80;16.40;;;;;;;;;;5046278;28;20021;-66
2021/06/23 11:54:46;;;;;;;31.10;18.75;;;;;;;;;;5051681;28;20267;-66
2021/06/23 11:57:11;;;;;;;25.05;17.00;;;;;;;;;;5065164;28;20021;-66
2021/06/23 11:59:43;;;;;;;28.52;16.33;;;;;;;;;;5048327;28;20048;-66
2021/06/23 12:02:08;;;;;;;30.27;16.05;;;;;;;;;;5049034;28;20024;-67
2021/06/23 12:04:33;;;;;;;31.27;17.37;;;;;;;;;;5049943;28;20023;-66
2021/06/23 12:06:58;;;;;;;33.70;17.92;;;;;;;;;;5032846;28;20260;-66
2021/06/23 12:09:23;;;;;;;30.42;16.98;;;;;;;;;;5031061;28;20057;-66
2021/06/23 12:11:49;;;;;;;26.02;16.42;;;;;;;;;;5030810;28;20432;-65
2021/06/23 12:14:14;;;;;;;24.02;16.45;;;;;;;;;;5031136;28;20082;-66
2021/06/23 12:16:39;;;;;;;40.60;16.00;;;;;;;;;;5036492;28;20339;-66
2021/06/23 12:19:04;;;;;;;29.58;16.27;;;;;;;;;;5050079;28;20651;-66
2021/06/23 12:21:30;;;;;;;34.43;16.37;;;;;;;;;;5050608;28;20031;-65
2021/06/23 12:23:55;;;;;;;29.48;17.00;;;;;;;;;;5050360;28;20294;-67
2021/06/23 12:26:22;;;;;;;28.40;16.58;;;;;;;;;;5050334;28;20036;-66
2021/06/23 12:28:47;;;;;;;34.05;16.42;;;;;;;;;;5050091;28;20057;-66
2021/06/23 12:31:13;;;;;;;30.92;15.70;;;;;;;;;;5049463;28;20098;-67
2021/06/23 12:33:38;;;;;;;31.13;15.47;;;;;;;;;;5050118;28;20257;-67
2021/06/23 12:36:03;;;;;;;23.00;13.77;;;;;;;;;;5048567;28;20247;-67
2021/06/23 12:38:29;;;;;;;31.73;16.55;;;;;;;;;;5050104;28;20024;-66
2021/06/23 12:40:54;;;;;;;40.63;16.42;;;;;;;;;;5049772;28;20496;-67
2021/06/23 12:43:20;;;;;;;28.23;16.17;;;;;;;;;;5050470;28;20016;-66
2021/06/23 12:45:48;;;;;;;33.97;14.68;;;;;;;;;;5048808;28;20457;-66
2021/06/23 12:48:14;;;;;;;34.53;16.58;;;;;;;;;;5048394;28;20027;-66
2021/06/23 12:50:40;;;;;;;28.20;14.70;;;;;;;;;;5040461;28;20060;-66
2021/06/23 12:53:05;;;;;;;28.40;15.15;;;;;;;;;;5050120;28;20017;-66
2021/06/23 12:55:31;;;;;;;24.90;14.32;;;;;;;;;;5049597;28;20096;-66
2021/06/23 12:57:56;;;;;;;24.80;14.15;;;;;;;;;;5050182;28;20079;-66
2021/06/23 13:00:22;;;;;;;33.72;14.63;;;;;;;;;;5051117;28;20017;-66
2021/06/23 13:02:48;;;;;;;23.63;13.77;;;;;;;;;;5046053;28;20052;-66
2021/06/23 13:05:15;;;;;;;24.88;14.13;;;;;;;;;;5036487;28;20095;-66
2021/06/23 13:07:40;;;;;;;25.73;13.48;;;;;;;;;;5029899;28;20033;-66
2021/06/23 13:10:06;;;;;;;23.55;15.23;;;;;;;;;;5029967;28;20637;-66
2021/06/23 13:12:32;;;;;;;25.67;12.75;;;;;;;;;;5030130;28;20026;-66
2021/06/23 13:14:57;;;;;;;29.30;15.85;;;;;;;;;;5047275;28;20530;-66
2021/06/23 13:17:22;;;;;;;28.80;15.85;;;;;;;;;;5049424;28;20028;-66
2021/06/23 13:19:48;;;;;;;25.90;13.95;;;;;;;;;;5048931;28;20539;-66
2021/06/23 13:22:13;;;;;;;32.23;13.93;;;;;;;;;;5046689;28;20021;-66
2021/06/23 13:24:39;;;;;;;24.87;13.27;;;;;;;;;;5044234;28;20698;-66
2021/06/23 13:27:04;;;;;;;26.23;12.60;;;;;;;;;;5049746;28;20025;-67
2021/06/23 13:29:29;;;;;;;26.80;12.93;;;;;;;;;;5049799;28;20013;-66
2021/06/23 13:31:54;;;;;;;32.88;14.30;;;;;;;;;;5048750;28;20025;-67
2021/06/23 13:34:20;;;;;;;30.73;13.13;;;;;;;;;;5053913;28;20391;-66
2021/06/23 13:36:45;;;;;;;25.85;13.23;;;;;;;;;;5049313;28;20270;-65
2021/06/23 13:39:11;;;;;;;26.13;13.02;;;;;;;;;;5062007;28;20020;-66
2021/06/23 13:41:37;;;;;;;26.63;12.50;;;;;;;;;;5049711;28;20087;-66
2021/06/23 13:44:02;;;;;;;28.60;12.75;;;;;;;;;;5058197;28;20120;-66
2021/06/23 13:46:27;;;;;;;28.85;12.80;;;;;;;;;;5049470;28;20065;-67
2021/06/23 13:48:52;;;;;;;23.97;12.90;;;;;;;;;;5048591;28;20028;-67
2021/06/23 13:51:17;;;;;;;35.67;12.27;;;;;;;;;;5051605;28;20283;-67
2021/06/23 13:53:43;;;;;;;32.03;13.90;;;;;;;;;;5053277;28;20397;-66
2021/06/23 13:56:08;;;;;;;36.97;14.20;;;;;;;;;;5052605;28;20024;-66
2021/06/23 13:58:33;;;;;;;24.40;13.33;;;;;;;;;;5053356;28;20271;-66
2021/06/23 14:00:58;;;;;;;28.00;12.97;;;;;;;;;;5053005;28;20668;-66
2021/06/23 14:03:23;;;;;;;22.80;12.52;;;;;;;;;;5052682;28;20021;-66
2021/06/23 14:05:48;;;;;;;25.40;13.73;;;;;;;;;;5067510;28;20024;-66
2021/06/23 14:08:15;;;;;;;28.13;13.40;;;;;;;;;;5054369;28;20275;-66
2021/06/23 14:10:41;;;;;;;20.98;13.15;;;;;;;;;;5066021;28;20491;-66
2021/06/23 14:13:07;;;;;;;25.17;13.05;;;;;;;;;;5053749;28;20029;-66
2021/06/23 14:15:32;;;;;;;24.70;13.55;;;;;;;;;;5072911;28;20610;-66
2021/06/23 14:17:57;;;;;;;27.95;13.88;;;;;;;;;;5065347;28;20037;-66
2021/06/23 14:20:23;;;;;;;27.80;13.38;;;;;;;;;;5046696;28;20029;-66
2021/06/23 14:22:49;;;;;;;24.83;11.98;;;;;;;;;;5057393;28;20052;-66
2021/06/23 14:25:14;;;;;;;26.38;13.05;;;;;;;;;;5054535;28;20110;-66
2021/06/23 14:27:40;;;;;;;26.52;14.70;;;;;;;;;;5052568;28;20532;-67